Time;durP1;ratioP1;P1;durP2;ratioP2;P2;SDS_P1;SDS_P2;PMS_P1;PMS_P2;Temp;Humidity;BMP_temperature;BMP_pressure;BME280_temperature;BME280_humidity;BME280_pressure;Samples;Min_cycle;Max_cycle;Signal;HPM_P1;HPM_P2
2023/01/23 00:01:26;;;;;;;26.20;14.40;;;;;;;2.19;99.24;102698.14;106986;1253;73872;-74
2023/01/23 00:03:54;;;;;;;30.70;14.90;;;;;;;2.18;99.28;102693.97;107144;1255;61368;-75
2023/01/23 00:06:21;;;;;;;29.80;14.10;;;;;;;2.19;99.41;102695.52;107606;1255;61242;-74
2023/01/23 00:08:48;;;;;;;26.80;14.60;;;;;;;2.19;99.56;102696.55;109027;1253;72534;-74
2023/01/23 00:11:19;;;;;;;26.20;14.10;;;;;;;2.20;99.33;102698.10;108005;1255;71809;-75
2023/01/23 00:13:46;;;;;;;27.30;15.10;;;;;;;2.21;99.26;102694.21;106695;1255;74754;-75
2023/01/23 00:16:16;;;;;;;25.80;15.00;;;;;;;2.22;99.47;102697.84;107930;1254;61702;-76
2023/01/23 00:18:43;;;;;;;26.20;14.20;;;;;;;2.23;99.59;102696.37;106557;1255;61365;-74
2023/01/23 00:21:12;;;;;;;27.60;15.00;;;;;;;2.24;99.59;102696.14;106642;1255;73469;-73
2023/01/23 00:23:43;;;;;;;30.40;15.10;;;;;;;2.24;99.05;102699.64;107334;1255;70243;-75
2023/01/23 00:26:14;;;;;;;26.00;14.60;;;;;;;2.22;99.01;102701.85;106881;1255;71203;-75
2023/01/23 00:28:42;;;;;;;30.90;14.80;;;;;;;2.21;98.95;102702.95;106493;1255;62511;-75
2023/01/23 00:31:12;;;;;;;26.80;13.80;;;;;;;2.20;98.98;102703.33;106642;1254;61344;-73
2023/01/23 00:33:40;;;;;;;26.10;14.00;;;;;;;2.20;99.54;102701.22;106712;1255;74696;-75
2023/01/23 00:36:07;;;;;;;25.10;13.10;;;;;;;2.21;99.34;102702.91;106707;1258;71014;-75
2023/01/23 00:38:35;;;;;;;31.00;14.00;;;;;;;2.18;99.03;102699.20;106421;1255;72648;-75
2023/01/23 00:41:02;;;;;;;32.30;14.70;;;;;;;2.17;99.14;102701.03;106779;1255;61296;-76
2023/01/23 00:43:29;;;;;;;30.60;14.60;;;;;;;2.14;99.03;102703.77;107297;1254;61429;-75
2023/01/23 00:45:59;;;;;;;33.90;14.70;;;;;;;2.10;98.85;102704.65;106661;1255;74845;-76
2023/01/23 00:48:25;;;;;;;34.90;15.30;;;;;;;2.07;99.13;102699.73;106492;1256;71176;-75
2023/01/23 00:50:52;;;;;;;34.50;15.30;;;;;;;2.07;99.06;102700.80;106538;1255;72982;-75
2023/01/23 00:53:19;;;;;;;30.90;15.10;;;;;;;2.05;99.47;102700.52;106881;1255;61411;-75
2023/01/23 00:55:46;;;;;;;33.50;14.30;;;;;;;2.04;99.60;102704.05;106509;1254;61247;-74
2023/01/23 00:58:13;;;;;;;32.40;15.30;;;;;;;2.05;99.69;102699.83;106639;1254;72623;-75
2023/01/23 01:00:40;;;;;;;30.30;14.00;;;;;;;2.04;99.71;102697.95;106841;1253;71031;-75
2023/01/23 01:03:07;;;;;;;31.20;14.40;;;;;;;2.02;99.45;102700.27;106820;1254;72681;-74
2023/01/23 01:05:35;;;;;;;34.80;13.70;;;;;;;2.01;99.65;102697.39;106887;1256;61241;-74
2023/01/23 01:08:02;;;;;;;29.70;14.10;;;;;;;2.00;99.59;102701.41;106710;1255;61178;-75
2023/01/23 01:10:31;;;;;;;35.70;14.60;;;;;;;1.99;99.54;102703.24;106616;1255;72768;-74
2023/01/23 01:13:00;;;;;;;32.70;13.90;;;;;;;1.97;99.91;102707.33;106654;1255;70633;-74
2023/01/23 01:15:28;;;;;;;33.60;14.50;;;;;;;1.94;99.85;102708.34;106772;1255;72246;-75
2023/01/23 01:17:56;;;;;;;26.90;13.90;;;;;;;1.95;99.95;102712.67;106488;1254;62312;-75
2023/01/23 01:20:25;;;;;;;31.60;13.60;;;;;;;1.96;99.93;102719.42;106745;1254;61808;-74
2023/01/23 01:22:53;;;;;;;30.10;13.70;;;;;;;1.96;99.80;102719.75;106747;1255;74577;-75
2023/01/23 01:25:21;;;;;;;31.90;14.40;;;;;;;1.96;99.92;102720.29;106677;1254;71249;-75
2023/01/23 01:27:48;;;;;;;31.10;14.00;;;;;;;1.95;99.99;102723.63;106441;1254;71106;-75
2023/01/23 01:30:18;;;;;;;31.10;14.20;;;;;;;1.94;99.76;102732.08;106700;1255;61778;-76
2023/01/23 01:32:46;;;;;;;28.70;13.60;;;;;;;1.93;99.89;102730.19;106687;1255;61160;-74
2023/01/23 01:35:13;;;;;;;31.20;13.90;;;;;;;1.91;99.86;102730.61;106911;1254;72339;-75
2023/01/23 01:37:41;;;;;;;29.50;13.30;;;;;;;1.91;99.93;102735.36;107162;1255;71199;-77
2023/01/23 01:40:12;;;;;;;26.20;13.30;;;;;;;1.92;100.00;102738.27;106693;1256;71258;-74
2023/01/23 01:43:07;;;;;;;30.20;14.30;;;;;;;1.93;99.94;102737.87;106453;1256;61354;-75
2023/01/23 01:46:11;;;;;;;29.40;13.10;;;;;;;1.94;100.00;102740.79;106516;1255;61243;-75
2023/01/23 01:49:03;;;;;;;30.30;12.90;;;;;;;1.95;99.98;102748.08;106548;1255;76177;-75
2023/01/23 01:51:41;;;;;;;34.10;13.90;;;;;;;1.94;99.98;102752.14;106570;1255;69747;-75
2023/01/23 01:54:18;;;;;;;30.80;14.00;;;;;;;1.93;99.97;102749.24;107058;1255;72662;-76
2023/01/23 01:56:58;;;;;;;32.70;14.10;;;;;;;1.91;99.96;102754.19;106490;1258;61238;-74
2023/01/23 01:59:28;;;;;;;33.80;13.50;;;;;;;1.92;100.00;102761.49;107113;1254;61127;-74
2023/01/23 02:02:06;;;;;;;36.70;14.60;;;;;;;1.92;99.97;102759.39;106647;1255;74271;-74
2023/01/23 02:04:37;;;;;;;33.20;13.60;;;;;;;1.93;100.00;102763.02;106522;1256;71197;-76
2023/01/23 02:07:10;;;;;;;29.70;13.90;;;;;;;1.94;100.00;102768.73;106844;1255;71509;-74
2023/01/23 02:09:37;;;;;;;29.20;13.20;;;;;;;1.95;100.00;102768.84;106543;1254;61617;-75
2023/01/23 02:12:04;;;;;;;35.60;14.70;;;;;;;1.96;99.96;102768.98;107128;1255;61261;-74
2023/01/23 02:14:30;;;;;;;29.50;14.10;;;;;;;1.96;100.00;102767.73;106526;1259;75332;-74
2023/01/23 02:16:59;;;;;;;35.30;14.30;;;;;;;1.96;99.99;102766.20;106685;1254;71365;-75
2023/01/23 02:19:39;;;;;;;27.60;13.80;;;;;;;1.95;99.98;102766.25;107016;1255;73878;-73
2023/01/23 02:22:28;;;;;;;33.40;14.60;;;;;;;1.98;100.00;102768.20;106624;1253;61540;-75
2023/01/23 02:25:11;;;;;;;36.30;14.20;;;;;;;1.98;99.99;102769.95;106831;1254;61622;-75
2023/01/23 02:27:38;;;;;;;34.10;14.10;;;;;;;2.00;99.99;102770.36;106604;1255;73804;-75
2023/01/23 02:30:08;;;;;;;31.50;13.60;;;;;;;2.01;100.00;102765.95;106905;1253;69790;-75
2023/01/23 02:32:35;;;;;;;34.60;15.20;;;;;;;2.05;100.00;102772.09;106742;1254;72954;-75
2023/01/23 02:35:11;;;;;;;31.30;14.00;;;;;;;2.07;99.99;102773.41;106577;1255;61257;-76
2023/01/23 02:37:41;;;;;;;33.50;15.00;;;;;;;2.09;99.95;102781.17;106601;1257;61149;-75
2023/01/23 02:40:19;;;;;;;31.80;14.10;;;;;;;2.10;99.98;102784.97;106905;1255;74560;-75
2023/01/23 02:42:49;;;;;;;31.60;13.60;;;;;;;2.09;99.97;102787.94;106657;1255;70477;-74
2023/01/23 02:45:24;;;;;;;29.80;13.30;;;;;;;2.10;99.96;102793.52;106581;1256;70802;-77
2023/01/23 02:47:51;;;;;;;33.20;13.70;;;;;;;2.10;99.90;102795.26;107021;1260;61539;-75
2023/01/23 02:50:18;;;;;;;33.70;14.40;;;;;;;2.11;100.00;102795.38;106783;1255;62126;-76
2023/01/23 02:52:46;;;;;;;35.30;13.80;;;;;;;2.12;99.92;102796.75;106618;1259;74984;-75
2023/01/23 02:55:13;;;;;;;34.10;14.00;;;;;;;2.11;99.88;102793.98;106493;1255;70948;-74
2023/01/23 02:57:40;;;;;;;37.20;14.60;;;;;;;2.11;99.94;102794.52;106652;1255;71549;-75
2023/01/23 03:00:18;;;;;;;35.20;13.50;;;;;;;2.10;99.86;102792.46;106825;1254;61354;-73
2023/01/23 03:02:50;;;;;;;35.30;14.50;;;;;;;2.09;99.89;102796.73;106686;1255;61252;-74
2023/01/23 03:05:17;;;;;;;30.60;14.10;;;;;;;2.09;99.97;102796.87;107335;1255;72860;-75
2023/01/23 03:07:44;;;;;;;32.70;14.80;;;;;;;2.10;100.00;102796.67;108791;1254;69212;-74
2023/01/23 03:10:11;;;;;;;28.70;12.90;;;;;;;2.09;99.90;102796.18;109044;1255;71804;-74
2023/01/23 03:12:42;;;;;;;30.70;14.00;;;;;;;2.08;99.84;102795.88;107561;1255;60723;-78
2023/01/23 03:15:09;;;;;;;27.50;13.40;;;;;;;2.09;99.90;102793.21;106987;1254;59516;-73
2023/01/23 03:17:39;;;;;;;30.60;13.20;;;;;;;2.10;99.93;102799.42;107841;1254;74400;-75
2023/01/23 03:20:07;;;;;;;27.00;13.10;;;;;;;2.12;99.77;102801.30;106857;1254;71002;-74
2023/01/23 03:22:34;;;;;;;30.40;14.00;;;;;;;2.12;99.73;102803.90;106577;1255;73883;-75
2023/01/23 03:25:01;;;;;;;31.10;14.30;;;;;;;2.13;99.57;102803.52;106543;1256;61759;-76
2023/01/23 03:27:28;;;;;;;33.40;14.00;;;;;;;2.13;99.86;102804.02;106496;1256;61639;-74
2023/01/23 03:30:14;;;;;;;32.30;14.20;;;;;;;2.14;99.66;102809.54;106833;1255;75249;-74
2023/01/23 03:32:42;;;;;;;34.10;15.00;;;;;;;2.16;99.61;102807.73;106576;1256;70176;-76
2023/01/23 03:35:13;;;;;;;29.80;14.50;;;;;;;2.17;99.86;102805.75;106513;1255;73834;-74
2023/01/23 03:37:40;;;;;;;35.10;14.60;;;;;;;2.16;99.36;102806.48;106701;1254;61424;-73
2023/01/23 03:43:12;;;;;;;32.20;14.30;;;;;;;2.15;99.45;102803.59;106588;1255;73685;-75
2023/01/23 03:45:39;;;;;;;29.30;14.00;;;;;;;2.14;99.46;102796.30;106348;1254;600586;-74
2023/01/23 03:48:06;;;;;;;31.10;14.50;;;;;;;2.14;99.34;102798.73;106650;1260;70614;-74
2023/01/23 03:50:42;;;;;;;27.80;14.30;;;;;;;2.14;99.37;102799.08;106474;1256;61618;-74
2023/01/23 03:53:09;;;;;;;30.20;14.40;;;;;;;2.14;99.32;102801.20;106561;1256;60567;-77
2023/01/23 03:55:35;;;;;;;27.60;14.20;;;;;;;2.12;99.27;102799.69;106504;1255;74480;-75
2023/01/23 03:58:02;;;;;;;27.40;14.70;;;;;;;2.11;99.06;102800.27;106820;1256;70420;-74
2023/01/23 04:00:32;;;;;;;28.80;14.00;;;;;;;2.11;99.01;102800.79;106540;1256;72601;-75
2023/01/23 04:02:59;;;;;;;28.70;14.60;;;;;;;2.11;99.20;102797.16;106958;1256;61953;-75
2023/01/23 04:05:25;;;;;;;29.50;15.60;;;;;;;2.11;99.18;102794.34;106599;1256;61176;-75
2023/01/23 04:07:52;;;;;;;25.70;13.80;;;;;;;2.13;99.41;102795.30;106532;1261;74610;-74
2023/01/23 04:10:19;;;;;;;27.00;14.40;;;;;;;2.15;99.21;102801.86;106666;1257;70370;-75
2023/01/23 04:12:46;;;;;;;26.70;13.60;;;;;;;2.14;98.79;102801.73;106802;1256;74461;-75
2023/01/23 04:15:13;;;;;;;28.80;14.00;;;;;;;2.14;98.86;102801.00;106860;1255;61825;-78
2023/01/23 04:17:40;;;;;;;30.40;14.70;;;;;;;2.14;98.81;102802.75;106587;1255;61487;-75
2023/01/23 04:20:09;;;;;;;26.90;13.70;;;;;;;2.15;98.90;102806.40;106486;1255;73693;-77
2023/01/23 04:22:36;;;;;;;28.80;13.60;;;;;;;2.15;98.76;102806.90;106834;1254;69773;-74
2023/01/23 04:25:04;;;;;;;26.40;13.60;;;;;;;2.14;98.45;102810.95;106803;1255;72773;-75
2023/01/23 04:27:31;;;;;;;27.20;14.00;;;;;;;2.13;98.53;102815.20;106605;1255;61248;-77
2023/01/23 04:29:57;;;;;;;27.80;13.70;;;;;;;2.13;98.55;102817.45;106632;1256;61203;-75
2023/01/23 04:32:25;;;;;;;28.00;14.10;;;;;;;2.15;98.74;102823.48;106980;1256;73251;-74
2023/01/23 04:34:52;;;;;;;28.10;13.50;;;;;;;2.16;98.49;102820.48;106837;1254;71149;-73
2023/01/23 04:37:19;;;;;;;28.10;14.20;;;;;;;2.16;98.61;102819.23;106512;1256;71562;-74
2023/01/23 04:39:45;;;;;;;25.90;13.50;;;;;;;2.16;98.63;102820.45;106522;1254;61241;-75
2023/01/23 04:42:12;;;;;;;29.10;14.20;;;;;;;2.17;98.53;102825.11;106695;1256;61336;-74
2023/01/23 04:44:39;;;;;;;27.80;14.10;;;;;;;2.18;98.55;102828.58;106632;1256;74811;-74
2023/01/23 04:47:07;;;;;;;27.70;13.40;;;;;;;2.18;98.52;102824.88;106726;1255;70435;-75
2023/01/23 04:49:37;;;;;;;26.70;12.60;;;;;;;2.19;98.46;102827.11;106473;1256;73081;-74
2023/01/23 04:52:04;;;;;;;26.30;13.80;;;;;;;2.18;98.24;102821.06;106850;1254;62231;-74
2023/01/23 04:54:39;;;;;;;29.30;14.40;;;;;;;2.18;98.11;102819.18;106512;1258;61253;-73
2023/01/23 04:57:06;;;;;;;25.30;14.00;;;;;;;2.16;98.01;102818.36;106600;1256;72817;-75
2023/01/23 04:59:33;;;;;;;25.40;13.50;;;;;;;2.14;98.01;102818.09;106559;1256;69737;-74
2023/01/23 05:02:01;;;;;;;28.00;14.20;;;;;;;2.12;97.88;102816.10;106485;1260;72875;-74
2023/01/23 05:04:28;;;;;;;27.90;14.60;;;;;;;2.11;97.94;102812.14;106671;1255;61333;-73
2023/01/23 05:06:54;;;;;;;29.30;14.80;;;;;;;2.09;97.76;102813.60;106841;1254;61345;-74
2023/01/23 05:09:21;;;;;;;23.70;12.90;;;;;;;2.09;97.88;102811.35;106887;1254;73190;-75
2023/01/23 05:11:48;;;;;;;25.40;13.50;;;;;;;2.09;97.89;102812.58;106587;1254;72473;-74
2023/01/23 05:14:15;;;;;;;25.80;14.70;;;;;;;2.09;97.92;102816.05;106440;1256;72769;-76
2023/01/23 05:16:42;;;;;;;24.70;13.20;;;;;;;2.10;98.05;102820.89;106800;1259;61331;-75
2023/01/23 05:19:09;;;;;;;25.60;13.40;;;;;;;2.08;97.84;102825.52;106735;1254;61176;-76
2023/01/23 05:21:38;;;;;;;27.10;13.10;;;;;;;2.06;97.64;102820.57;106436;1260;74051;-74
2023/01/23 05:24:05;;;;;;;25.00;13.20;;;;;;;2.06;97.74;102815.33;106775;1255;69664;-74
2023/01/23 05:26:33;;;;;;;24.60;13.30;;;;;;;2.06;98.11;102824.03;106912;1255;72408;-74
2023/01/23 05:29:01;;;;;;;24.00;13.30;;;;;;;2.05;97.67;102830.19;106565;1255;61485;-75
2023/01/23 05:31:28;;;;;;;24.00;13.00;;;;;;;2.03;97.77;102829.72;106698;1255;61161;-75
2023/01/23 05:33:55;;;;;;;22.20;13.20;;;;;;;2.02;97.54;102832.40;106758;1256;73472;-74
2023/01/23 05:36:21;;;;;;;27.50;14.20;;;;;;;2.02;97.86;102830.14;106829;1256;70406;-76
2023/01/23 05:38:49;;;;;;;27.80;14.00;;;;;;;2.02;97.70;102828.59;106912;1256;71491;-75
2023/01/23 05:41:16;;;;;;;21.90;13.30;;;;;;;2.00;97.55;102825.69;106799;1255;61354;-74
2023/01/23 05:43:43;;;;;;;22.60;12.50;;;;;;;1.97;97.26;102829.14;107002;1256;62523;-77
2023/01/23 05:46:10;;;;;;;24.00;12.30;;;;;;;1.96;97.61;102831.12;106889;1255;75231;-75
2023/01/23 05:48:36;;;;;;;23.80;12.90;;;;;;;1.94;97.61;102829.98;106949;1255;70341;-75
2023/01/23 05:51:04;;;;;;;25.10;13.00;;;;;;;1.91;97.60;102826.29;106765;1255;72490;-75
2023/01/23 05:53:31;;;;;;;24.30;12.80;;;;;;;1.90;97.69;102831.40;106584;1256;61353;-76
2023/01/23 05:55:58;;;;;;;24.70;13.30;;;;;;;1.89;98.05;102834.21;106474;1256;61360;-75
2023/01/23 05:58:25;;;;;;;27.10;13.90;;;;;;;1.88;97.85;102840.68;107073;1258;73182;-75
2023/01/23 06:00:53;;;;;;;24.40;13.20;;;;;;;1.90;97.98;102848.31;106919;1256;71883;-74
2023/01/23 06:03:20;;;;;;;24.70;12.80;;;;;;;1.91;98.32;102858.38;107055;1261;70619;-75
2023/01/23 06:05:47;;;;;;;26.20;13.40;;;;;;;1.92;97.92;102860.77;107625;1255;61230;-75
2023/01/23 06:08:14;;;;;;;23.80;12.70;;;;;;;1.94;97.92;102863.14;107312;1255;61344;-76
2023/01/23 06:10:41;;;;;;;24.90;13.40;;;;;;;1.96;97.93;102865.30;106841;1256;73159;-75
2023/01/23 06:13:08;;;;;;;25.90;13.50;;;;;;;1.98;98.05;102872.55;107640;1254;71110;-74
2023/01/23 06:15:44;;;;;;;24.00;13.20;;;;;;;2.00;98.07;102874.00;106684;1255;71867;-75
2023/01/23 06:18:12;;;;;;;25.30;14.10;;;;;;;2.02;97.78;102875.16;107031;1254;61704;-74
2023/01/23 06:20:41;;;;;;;25.70;13.70;;;;;;;2.04;97.53;102876.33;106889;1257;61211;-75
2023/01/23 06:23:11;;;;;;;24.80;13.80;;;;;;;2.03;97.63;102876.88;106603;1255;75392;-75
2023/01/23 06:25:38;;;;;;;26.90;14.50;;;;;;;2.03;97.65;102880.69;106479;1261;69664;-76
2023/01/23 06:28:07;;;;;;;23.90;13.10;;;;;;;2.04;97.58;102888.17;106610;1255;71312;-75
2023/01/23 06:30:34;;;;;;;26.40;13.50;;;;;;;1.99;97.29;102888.38;106523;1256;61297;-73
2023/01/23 06:33:01;;;;;;;25.00;13.90;;;;;;;1.96;97.28;102894.96;106717;1256;61379;-75
2023/01/23 06:35:28;;;;;;;22.80;12.70;;;;;;;1.94;97.32;102893.66;106383;1260;74438;-71
2023/01/23 06:37:55;;;;;;;21.80;12.70;;;;;;;1.91;97.22;102896.55;106958;1254;70443;-73
2023/01/23 06:40:22;;;;;;;25.80;13.20;;;;;;;1.88;97.46;102894.96;106360;1255;72547;-74
2023/01/23 06:42:53;;;;;;;23.90;13.30;;;;;;;1.87;97.67;102900.27;106711;1258;61307;-73
2023/01/23 06:45:20;;;;;;;25.60;13.60;;;;;;;1.82;97.75;102900.27;106388;1255;61154;-74
2023/01/23 06:47:48;;;;;;;24.50;13.30;;;;;;;1.81;97.50;102906.25;106464;1260;73240;-74
2023/01/23 06:50:15;;;;;;;25.30;13.30;;;;;;;1.81;97.74;102908.88;106312;1260;70007;-76
2023/01/23 06:52:42;;;;;;;25.20;13.40;;;;;;;1.81;97.61;102910.27;106583;1255;71183;-73
2023/01/23 06:55:09;;;;;;;26.60;14.50;;;;;;;1.81;97.81;102916.70;106803;1258;62521;-73
2023/01/23 06:57:36;;;;;;;25.20;13.30;;;;;;;1.83;97.81;102926.40;106278;1256;61712;-75
2023/01/23 07:00:04;;;;;;;25.20;13.80;;;;;;;1.82;97.80;102930.61;106458;1254;74921;-74
2023/01/23 07:02:31;;;;;;;25.60;14.20;;;;;;;1.82;97.62;102930.63;106505;1254;71285;-74
2023/01/23 07:04:58;;;;;;;23.20;13.70;;;;;;;1.83;97.77;102932.17;106450;1256;72702;-74
2023/01/23 07:07:25;;;;;;;21.50;13.10;;;;;;;1.83;97.62;102934.10;106533;1254;61270;-76
2023/01/23 07:09:55;;;;;;;21.50;12.60;;;;;;;1.84;97.60;102934.22;106803;1259;59522;-74
2023/01/23 07:12:23;;;;;;;23.10;13.50;;;;;;;1.86;97.83;102933.80;106465;1261;75746;-75
2023/01/23 07:14:49;;;;;;;22.70;12.80;;;;;;;1.87;97.39;102938.63;108442;1255;70349;-74
2023/01/23 07:17:19;;;;;;;20.70;12.60;;;;;;;1.88;97.28;102944.17;108982;1254;72838;-73
2023/01/23 07:19:46;;;;;;;23.30;13.70;;;;;;;1.89;97.31;102946.40;109026;1254;60947;-73
2023/01/23 07:22:17;;;;;;;21.70;13.30;;;;;;;1.90;97.26;102946.87;109051;1254;59998;-74
2023/01/23 07:24:43;;;;;;;25.20;14.00;;;;;;;1.94;97.12;102950.04;108998;1254;72441;-73
2023/01/23 07:27:10;;;;;;;26.80;14.70;;;;;;;1.96;97.43;102955.33;108393;1256;70102;-74
2023/01/23 07:29:41;;;;;;;25.80;14.50;;;;;;;2.00;96.97;102960.08;107943;1256;72586;-76
2023/01/23 07:32:08;;;;;;;23.70;14.40;;;;;;;2.01;96.71;102968.78;106248;1256;61361;-74
2023/01/23 07:34:37;;;;;;;23.40;13.80;;;;;;;2.01;96.91;102972.23;106522;1256;61247;-74
2023/01/23 07:37:04;;;;;;;24.90;14.60;;;;;;;2.03;96.75;102977.39;106325;1255;73181;-74
2023/01/23 07:39:31;;;;;;;22.80;14.10;;;;;;;2.05;96.71;102976.64;106351;1254;71139;-75
2023/01/23 07:41:58;;;;;;;24.10;14.20;;;;;;;2.06;96.85;102979.04;107422;1254;72706;-73
2023/01/23 07:44:25;;;;;;;24.00;13.70;;;;;;;2.05;96.45;102983.96;107584;1256;62214;-75
2023/01/23 07:46:52;;;;;;;23.40;13.90;;;;;;;2.02;96.49;102988.27;106675;1255;61351;-74
2023/01/23 07:49:19;;;;;;;25.60;14.10;;;;;;;2.00;96.36;102987.13;106884;1259;73630;-74
2023/01/23 07:51:46;;;;;;;25.70;13.70;;;;;;;2.00;96.72;102986.59;106550;1259;68954;-75
2023/01/23 07:54:13;;;;;;;24.70;14.10;;;;;;;2.01;96.33;102982.89;106510;1257;71050;-74
2023/01/23 07:56:40;;;;;;;23.40;13.70;;;;;;;2.02;96.49;102978.33;106845;1258;61226;-74
2023/01/23 07:59:07;;;;;;;27.80;14.80;;;;;;;2.01;96.66;102988.63;106466;1254;61241;-75
2023/01/23 08:01:34;;;;;;;26.10;14.50;;;;;;;2.00;96.32;102991.14;106513;1258;75354;-77
2023/01/23 08:04:01;;;;;;;26.40;14.70;;;;;;;1.98;96.28;102989.45;106266;1258;69927;-76
2023/01/23 08:06:28;;;;;;;27.10;15.10;;;;;;;1.95;96.18;102994.98;107208;1255;71523;-74
2023/01/23 08:08:55;;;;;;;27.90;15.80;;;;;;;1.96;96.47;102995.16;106928;1254;61299;-75
2023/01/23 08:11:25;;;;;;;28.50;15.00;;;;;;;1.96;96.42;103000.03;106757;1255;61127;-74
2023/01/23 08:13:52;;;;;;;27.00;14.50;;;;;;;1.96;96.39;102998.45;106577;1256;74982;-74
2023/01/23 08:16:24;;;;;;;28.00;15.60;;;;;;;1.96;96.65;102999.33;106470;1261;69951;-74
2023/01/23 08:18:51;;;;;;;30.10;16.00;;;;;;;1.95;96.68;102997.59;106737;1255;72546;-74
2023/01/23 08:21:18;;;;;;;30.70;15.80;;;;;;;1.97;96.74;102996.15;106365;1256;61271;-75
2023/01/23 08:23:45;;;;;;;30.60;16.00;;;;;;;2.00;96.53;102993.76;106688;1259;61744;-75
2023/01/23 08:26:14;;;;;;;29.80;15.70;;;;;;;2.02;96.63;102993.83;106384;1257;74217;-73
2023/01/23 08:28:44;;;;;;;30.20;15.60;;;;;;;2.03;96.54;102994.49;106612;1256;69633;-74
2023/01/23 08:31:18;;;;;;;27.40;15.40;;;;;;;2.03;96.47;102990.30;106199;1254;73866;-76
2023/01/23 08:33:45;;;;;;;31.40;16.30;;;;;;;2.05;96.39;102993.55;106290;1258;61838;-74
2023/01/23 08:36:12;;;;;;;33.60;15.90;;;;;;;2.06;96.55;102996.16;106150;1260;61974;-75
2023/01/23 08:38:39;;;;;;;32.30;16.50;;;;;;;2.06;96.18;102998.58;106546;1256;73251;-75
2023/01/23 08:41:08;;;;;;;32.10;16.30;;;;;;;2.06;96.42;102996.81;106578;1260;70479;-75
2023/01/23 08:43:35;;;;;;;35.10;17.00;;;;;;;2.07;96.20;103003.97;106509;1257;71963;-74
2023/01/23 08:46:03;;;;;;;30.50;15.80;;;;;;;2.08;96.38;103007.24;106255;1256;62779;-76
2023/01/23 08:48:30;;;;;;;34.70;16.10;;;;;;;2.07;96.26;103003.27;106741;1259;61275;-73
2023/01/23 08:51:00;;;;;;;31.70;16.90;;;;;;;2.10;96.39;103009.08;106278;1257;73679;-75
2023/01/23 08:53:28;;;;;;;36.20;18.40;;;;;;;2.11;96.56;103012.67;106499;1256;70425;-76
2023/01/23 08:56:22;;;;;;;35.10;17.30;;;;;;;2.14;96.42;103013.81;106608;1261;72353;-74
2023/01/23 08:58:50;;;;;;;31.10;15.90;;;;;;;2.17;96.27;103007.73;106452;1257;61237;-74
2023/01/23 09:01:22;;;;;;;27.30;14.70;;;;;;;2.19;96.32;103007.65;106981;1258;61456;-75
2023/01/23 09:03:54;;;;;;;26.50;14.60;;;;;;;2.19;96.15;103006.07;106480;1254;74737;-73
2023/01/23 09:06:24;;;;;;;25.10;14.50;;;;;;;2.21;96.02;103004.41;106491;1260;69945;-75
2023/01/23 09:08:51;;;;;;;24.70;13.30;;;;;;;2.25;96.19;103001.64;106314;1254;72793;-74
2023/01/23 09:11:18;;;;;;;22.90;13.50;;;;;;;2.31;96.13;103004.69;106244;1260;59976;-72
2023/01/23 09:13:45;;;;;;;26.30;15.50;;;;;;;2.37;95.87;103009.36;106526;1259;61831;-74
2023/01/23 09:16:15;;;;;;;21.00;13.00;;;;;;;2.42;96.01;103010.71;106255;1255;73449;-73
2023/01/23 09:18:45;;;;;;;24.10;13.60;;;;;;;2.47;95.42;103014.17;106625;1257;69808;-73
2023/01/23 09:21:14;;;;;;;22.20;13.80;;;;;;;2.49;95.12;103018.96;106269;1260;72403;-76
2023/01/23 09:23:41;;;;;;;24.20;13.80;;;;;;;2.53;95.03;103019.16;106414;1263;61117;-73
2023/01/23 09:26:10;;;;;;;21.80;13.10;;;;;;;2.54;95.04;103027.86;106339;1257;61361;-74
2023/01/23 09:28:40;;;;;;;23.50;13.60;;;;;;;2.55;94.77;103028.16;106208;1256;75654;-73
2023/01/23 09:31:10;;;;;;;23.40;13.10;;;;;;;2.57;94.73;103030.16;106473;1258;70917;-74
2023/01/23 09:33:37;;;;;;;20.40;12.40;;;;;;;2.60;94.75;103033.20;106515;1257;74596;-73
2023/01/23 09:36:05;;;;;;;23.50;13.90;;;;;;;2.61;94.57;103032.78;106255;1256;61378;-74
2023/01/23 09:38:32;;;;;;;23.30;13.60;;;;;;;2.64;94.57;103040.35;106586;1257;61135;-73
2023/01/23 09:41:10;;;;;;;23.70;13.80;;;;;;;2.66;94.22;103047.22;106207;1260;73389;-73
2023/01/23 09:43:54;;;;;;;23.50;13.60;;;;;;;2.69;94.13;103050.46;106562;1254;69810;-73
2023/01/23 09:46:31;;;;;;;21.90;13.40;;;;;;;2.69;94.31;103052.52;106470;1255;72936;-74
2023/01/23 09:49:02;;;;;;;22.60;13.60;;;;;;;2.68;94.23;103052.58;106322;1254;61341;-74
2023/01/23 09:51:42;;;;;;;22.10;12.80;;;;;;;2.68;93.71;103059.89;106251;1254;61465;-73
2023/01/23 09:54:37;;;;;;;25.00;13.60;;;;;;;2.68;93.63;103060.27;106400;1255;75640;-73
2023/01/23 09:57:15;;;;;;;22.00;13.40;;;;;;;2.69;93.76;103060.40;106595;1259;71263;-71
2023/01/23 09:59:52;;;;;;;24.60;13.90;;;;;;;2.72;93.85;103062.54;106305;1259;71715;-73
2023/01/23 10:02:27;;;;;;;23.20;13.40;;;;;;;2.77;93.91;103066.16;106601;1258;61998;-74
2023/01/23 10:04:56;;;;;;;24.40;13.80;;;;;;;2.81;93.78;103061.27;106456;1260;61804;-73
2023/01/23 10:07:29;;;;;;;23.70;14.60;;;;;;;2.81;93.67;103065.62;106187;1257;74302;-74
2023/01/23 10:10:25;;;;;;;23.50;13.00;;;;;;;2.85;93.91;103060.05;106586;1254;72311;-73
2023/01/23 10:13:30;;;;;;;22.40;13.80;;;;;;;2.92;93.47;103063.27;106384;1258;71307;-74
2023/01/23 10:15:59;;;;;;;27.20;14.70;;;;;;;2.94;93.37;103074.01;106595;1255;62385;-74
2023/01/23 10:18:40;;;;;;;24.40;13.90;;;;;;;2.97;93.31;103073.36;106504;1254;61258;-75
2023/01/23 10:21:25;;;;;;;25.30;14.90;;;;;;;2.99;93.22;103072.59;106553;1258;73761;-74
2023/01/23 10:24:00;;;;;;;25.30;13.80;;;;;;;2.98;93.03;103074.01;106527;1259;70956;-75
2023/01/23 10:26:31;;;;;;;24.90;14.10;;;;;;;2.96;92.71;103071.99;106686;1254;72632;-74
2023/01/23 10:29:26;;;;;;;22.40;13.10;;;;;;;2.96;92.85;103071.48;106456;1260;61281;-75
2023/01/23 10:31:56;;;;;;;24.70;13.90;;;;;;;2.95;92.70;103072.90;106764;1257;61173;-75
2023/01/23 10:34:33;;;;;;;26.30;13.60;;;;;;;2.94;92.91;103075.77;106565;1255;72387;-75
2023/01/23 10:37:12;;;;;;;24.20;14.70;;;;;;;2.92;92.70;103071.63;106246;1258;72082;-76
2023/01/23 10:39:49;;;;;;;24.20;13.30;;;;;;;2.95;92.78;103079.23;106509;1257;73934;-74
2023/01/23 10:42:22;;;;;;;25.90;14.00;;;;;;;2.93;92.71;103072.64;106487;1257;61145;-77
2023/01/23 10:44:49;;;;;;;24.80;14.30;;;;;;;2.91;92.74;103075.55;106388;1260;61209;-75
2023/01/23 10:47:36;;;;;;;24.10;14.10;;;;;;;2.91;92.90;103076.42;106459;1258;73530;-74
2023/01/23 10:50:06;;;;;;;25.40;14.30;;;;;;;2.78;92.59;103060.00;106258;1259;72354;-73
2023/01/23 10:52:43;;;;;;;23.90;14.00;;;;;;;2.83;92.73;103071.16;106521;1257;70474;-78
2023/01/23 10:55:26;;;;;;;26.40;14.60;;;;;;;2.84;93.21;103071.45;106315;1257;61410;-75
2023/01/23 10:57:55;;;;;;;25.90;14.60;;;;;;;2.89;93.30;103072.13;106259;1254;61174;-74
2023/01/23 11:00:33;;;;;;;25.70;14.20;;;;;;;2.93;93.25;103073.52;106193;1255;74716;-75
2023/01/23 11:03:27;;;;;;;23.20;13.00;;;;;;;2.96;92.80;103075.34;106543;1255;71239;-74
2023/01/23 11:06:02;;;;;;;23.50;13.60;;;;;;;2.96;92.56;103070.11;106175;1260;74007;-75
2023/01/23 11:08:37;;;;;;;22.10;13.40;;;;;;;2.94;92.17;103065.11;106878;1260;60317;-75
2023/01/23 11:11:22;;;;;;;23.30;13.30;;;;;;;2.92;92.11;103059.44;106313;1260;61192;-77
2023/01/23 11:14:02;;;;;;;23.60;13.70;;;;;;;2.94;92.29;103060.71;106215;1254;74352;-75
2023/01/23 11:16:30;;;;;;;21.70;13.60;;;;;;;2.97;92.42;103057.61;106435;1254;69854;-75
2023/01/23 11:19:06;;;;;;;22.00;13.40;;;;;;;2.99;92.32;103057.89;106416;1257;72209;-75
2023/01/23 11:21:49;;;;;;;22.30;13.40;;;;;;;2.98;92.14;103059.85;106462;1256;61341;-74
2023/01/23 11:24:29;;;;;;;22.40;13.30;;;;;;;3.02;92.54;103060.02;106231;1258;61337;-73
2023/01/23 11:27:12;;;;;;;23.30;12.90;;;;;;;3.05;92.13;103058.85;107162;1257;73771;-75